sensor_id;sensor_type;location;lat;lon;timestamp;temperature;humidity
32217;DHT22;67098;51.140;4.088;2023-05-10T00:02:10;16.30;96.70
32217;DHT22;67098;51.140;4.088;2023-05-10T00:04:35;16.30;96.80
32217;DHT22;67098;51.140;4.088;2023-05-10T00:07:01;16.30;96.60
32217;DHT22;67098;51.140;4.088;2023-05-10T00:09:27;16.30;96.50
32217;DHT22;67098;51.140;4.088;2023-05-10T00:11:53;16.30;96.40
32217;DHT22;67098;51.140;4.088;2023-05-10T00:14:18;16.20;96.50
32217;DHT22;67098;51.140;4.088;2023-05-10T00:16:44;16.20;96.60
32217;DHT22;67098;51.140;4.088;2023-05-10T00:19:10;16.20;96.60
32217;DHT22;67098;51.140;4.088;2023-05-10T00:21:36;16.20;96.70
32217;DHT22;67098;51.140;4.088;2023-05-10T00:24:02;16.10;96.70
32217;DHT22;67098;51.140;4.088;2023-05-10T00:26:27;16.20;96.60
32217;DHT22;67098;51.140;4.088;2023-05-10T00:28:53;16.20;96.70
32217;DHT22;67098;51.140;4.088;2023-05-10T00:31:19;16.20;96.80
32217;DHT22;67098;51.140;4.088;2023-05-10T00:33:44;16.20;96.80
32217;DHT22;67098;51.140;4.088;2023-05-10T00:36:10;16.10;96.90
32217;DHT22;67098;51.140;4.088;2023-05-10T00:38:36;16.10;97.00
32217;DHT22;67098;51.140;4.088;2023-05-10T00:41:02;16.10;97.10
32217;DHT22;67098;51.140;4.088;2023-05-10T00:43:29;16.00;97.50
32217;DHT22;67098;51.140;4.088;2023-05-10T00:45:54;16.10;97.20
32217;DHT22;67098;51.140;4.088;2023-05-10T00:48:21;16.00;97.30
32217;DHT22;67098;51.140;4.088;2023-05-10T00:50:47;16.00;97.50
32217;DHT22;67098;51.140;4.088;2023-05-10T00:53:14;15.90;97.50
32217;DHT22;67098;51.140;4.088;2023-05-10T00:55:40;16.00;97.40
32217;DHT22;67098;51.140;4.088;2023-05-10T00:58:06;15.90;97.60
32217;DHT22;67098;51.140;4.088;2023-05-10T01:00:33;15.90;97.50
32217;DHT22;67098;51.140;4.088;2023-05-10T01:02:58;15.90;97.50
32217;DHT22;67098;51.140;4.088;2023-05-10T01:05:25;15.90;97.50
32217;DHT22;67098;51.140;4.088;2023-05-10T01:07:52;15.90;97.70
32217;DHT22;67098;51.140;4.088;2023-05-10T01:10:18;15.90;97.70
32217;DHT22;67098;51.140;4.088;2023-05-10T01:12:45;15.90;97.60
32217;DHT22;67098;51.140;4.088;2023-05-10T01:15:12;15.90;97.50
32217;DHT22;67098;51.140;4.088;2023-05-10T01:17:40;15.90;97.70
32217;DHT22;67098;51.140;4.088;2023-05-10T01:20:08;15.80;97.80
32217;DHT22;67098;51.140;4.088;2023-05-10T01:31:33;15.80;97.80
32217;DHT22;67098;51.140;4.088;2023-05-10T01:34:23;15.80;97.90
32217;DHT22;67098;51.140;4.088;2023-05-10T01:37:08;15.80;98.00
32217;DHT22;67098;51.140;4.088;2023-05-10T01:42:11;15.70;98.10
32217;DHT22;67098;51.140;4.088;2023-05-10T01:44:40;15.70;98.00
32217;DHT22;67098;51.140;4.088;2023-05-10T01:47:12;15.70;98.20
32217;DHT22;67098;51.140;4.088;2023-05-10T01:49:50;15.70;98.20
32217;DHT22;67098;51.140;4.088;2023-05-10T01:52:21;15.80;98.10
32217;DHT22;67098;51.140;4.088;2023-05-10T01:54:56;15.70;98.00
32217;DHT22;67098;51.140;4.088;2023-05-10T01:57:27;15.70;97.90
32217;DHT22;67098;51.140;4.088;2023-05-10T01:59:57;15.70;97.90
32217;DHT22;67098;51.140;4.088;2023-05-10T02:02:25;15.60;98.10
32217;DHT22;67098;51.140;4.088;2023-05-10T02:04:53;15.70;98.00
32217;DHT22;67098;51.140;4.088;2023-05-10T02:07:21;15.70;98.20
32217;DHT22;67098;51.140;4.088;2023-05-10T02:09:49;15.70;98.20
32217;DHT22;67098;51.140;4.088;2023-05-10T02:12:16;15.60;98.10
32217;DHT22;67098;51.140;4.088;2023-05-10T02:14:44;15.60;98.20
32217;DHT22;67098;51.140;4.088;2023-05-10T02:17:11;15.60;98.10
32217;DHT22;67098;51.140;4.088;2023-05-10T02:19:40;15.60;98.10
32217;DHT22;67098;51.140;4.088;2023-05-10T02:22:06;15.50;98.20
32217;DHT22;67098;51.140;4.088;2023-05-10T02:24:34;15.60;98.00
32217;DHT22;67098;51.140;4.088;2023-05-10T02:27:02;15.60;97.90
32217;DHT22;67098;51.140;4.088;2023-05-10T02:29:29;15.60;97.80
32217;DHT22;67098;51.140;4.088;2023-05-10T02:31:57;15.60;97.80
32217;DHT22;67098;51.140;4.088;2023-05-10T02:34:26;15.60;97.90
32217;DHT22;67098;51.140;4.088;2023-05-10T02:36:53;15.50;98.00
32217;DHT22;67098;51.140;4.088;2023-05-10T02:39:20;15.50;98.10
32217;DHT22;67098;51.140;4.088;2023-05-10T02:41:47;15.50;98.00
32217;DHT22;67098;51.140;4.088;2023-05-10T02:44:15;15.60;98.00
32217;DHT22;67098;51.140;4.088;2023-05-10T02:46:43;15.40;98.20
32217;DHT22;67098;51.140;4.088;2023-05-10T02:49:09;15.30;98.30
32217;DHT22;67098;51.140;4.088;2023-05-10T02:51:37;15.40;98.40
32217;DHT22;67098;51.140;4.088;2023-05-10T02:54:28;15.40;98.30
32217;DHT22;67098;51.140;4.088;2023-05-10T02:56:57;15.50;97.80
32217;DHT22;67098;51.140;4.088;2023-05-10T02:59:23;15.50;97.80
32217;DHT22;67098;51.140;4.088;2023-05-10T03:01:49;15.40;97.90
32217;DHT22;67098;51.140;4.088;2023-05-10T03:04:14;15.40;98.00
32217;DHT22;67098;51.140;4.088;2023-05-10T03:06:40;15.30;98.10
32217;DHT22;67098;51.140;4.088;2023-05-10T03:09:06;15.30;98.00
32217;DHT22;67098;51.140;4.088;2023-05-10T03:11:50;15.30;98.00
32217;DHT22;67098;51.140;4.088;2023-05-10T03:14:29;15.40;97.90
32217;DHT22;67098;51.140;4.088;2023-05-10T03:17:25;15.20;98.30
32217;DHT22;67098;51.140;4.088;2023-05-10T03:20:01;15.20;98.30
32217;DHT22;67098;51.140;4.088;2023-05-10T03:22:34;15.20;98.30
32217;DHT22;67098;51.140;4.088;2023-05-10T03:25:05;15.20;98.40
32217;DHT22;67098;51.140;4.088;2023-05-10T03:27:32;15.20;98.30
32217;DHT22;67098;51.140;4.088;2023-05-10T03:29:58;15.20;98.30
32217;DHT22;67098;51.140;4.088;2023-05-10T03:32:24;15.30;98.10
32217;DHT22;67098;51.140;4.088;2023-05-10T03:34:50;15.40;97.80
32217;DHT22;67098;51.140;4.088;2023-05-10T03:37:15;15.40;97.70
32217;DHT22;67098;51.140;4.088;2023-05-10T03:39:41;15.50;97.60
32217;DHT22;67098;51.140;4.088;2023-05-10T03:42:06;15.40;97.60
32217;DHT22;67098;51.140;4.088;2023-05-10T03:44:32;15.50;97.50
32217;DHT22;67098;51.140;4.088;2023-05-10T03:46:59;15.50;97.60
32217;DHT22;67098;51.140;4.088;2023-05-10T03:49:24;15.50;97.60
32217;DHT22;67098;51.140;4.088;2023-05-10T03:51:50;15.50;97.60
32217;DHT22;67098;51.140;4.088;2023-05-10T03:54:15;15.50;97.70
32217;DHT22;67098;51.140;4.088;2023-05-10T03:56:41;15.60;97.70
32217;DHT22;67098;51.140;4.088;2023-05-10T03:59:07;15.60;97.50
32217;DHT22;67098;51.140;4.088;2023-05-10T04:01:34;15.70;97.20
32217;DHT22;67098;51.140;4.088;2023-05-10T04:04:00;15.80;97.10
32217;DHT22;67098;51.140;4.088;2023-05-10T04:06:26;15.70;97.00
32217;DHT22;67098;51.140;4.088;2023-05-10T04:08:51;15.70;97.00
32217;DHT22;67098;51.140;4.088;2023-05-10T04:11:17;15.80;96.90
32217;DHT22;67098;51.140;4.088;2023-05-10T04:13:43;15.70;97.00
32217;DHT22;67098;51.140;4.088;2023-05-10T04:16:09;15.70;96.90
32217;DHT22;67098;51.140;4.088;2023-05-10T04:18:35;15.70;96.80
32217;DHT22;67098;51.140;4.088;2023-05-10T04:21:00;15.70;97.10
32217;DHT22;67098;51.140;4.088;2023-05-10T04:23:27;15.70;97.00
32217;DHT22;67098;51.140;4.088;2023-05-10T04:25:58;15.70;96.70
32217;DHT22;67098;51.140;4.088;2023-05-10T04:28:24;15.80;96.70
32217;DHT22;67098;51.140;4.088;2023-05-10T04:30:49;15.70;96.80
32217;DHT22;67098;51.140;4.088;2023-05-10T04:33:15;15.70;96.90
32217;DHT22;67098;51.140;4.088;2023-05-10T04:35:41;15.70;96.80
32217;DHT22;67098;51.140;4.088;2023-05-10T04:38:07;15.60;97.00
32217;DHT22;67098;51.140;4.088;2023-05-10T04:40:32;15.70;97.00
32217;DHT22;67098;51.140;4.088;2023-05-10T04:42:58;15.70;96.90
32217;DHT22;67098;51.140;4.088;2023-05-10T04:45:24;15.80;96.80
32217;DHT22;67098;51.140;4.088;2023-05-10T04:47:49;15.80;96.80
32217;DHT22;67098;51.140;4.088;2023-05-10T04:50:15;15.80;96.70
32217;DHT22;67098;51.140;4.088;2023-05-10T04:52:41;15.80;96.70
32217;DHT22;67098;51.140;4.088;2023-05-10T04:55:06;15.80;96.90
32217;DHT22;67098;51.140;4.088;2023-05-10T04:57:35;15.80;96.80
32217;DHT22;67098;51.140;4.088;2023-05-10T05:00:00;15.90;96.50
32217;DHT22;67098;51.140;4.088;2023-05-10T05:02:26;15.90;96.50
32217;DHT22;67098;51.140;4.088;2023-05-10T05:04:52;15.90;96.40
32217;DHT22;67098;51.140;4.088;2023-05-10T05:07:17;15.90;96.40
32217;DHT22;67098;51.140;4.088;2023-05-10T05:09:43;15.90;96.50
32217;DHT22;67098;51.140;4.088;2023-05-10T05:12:08;15.90;96.60
32217;DHT22;67098;51.140;4.088;2023-05-10T05:14:39;15.90;96.80
32217;DHT22;67098;51.140;4.088;2023-05-10T05:17:05;15.90;96.90
32217;DHT22;67098;51.140;4.088;2023-05-10T05:19:31;16.10;96.80
32217;DHT22;67098;51.140;4.088;2023-05-10T05:21:57;16.20;96.60
32217;DHT22;67098;51.140;4.088;2023-05-10T05:24:23;16.40;96.10
32217;DHT22;67098;51.140;4.088;2023-05-10T05:26:48;16.50;95.90
32217;DHT22;67098;51.140;4.088;2023-05-10T05:29:14;16.60;95.70
32217;DHT22;67098;51.140;4.088;2023-05-10T05:31:40;16.60;95.60
32217;DHT22;67098;51.140;4.088;2023-05-10T05:34:05;16.70;95.40
32217;DHT22;67098;51.140;4.088;2023-05-10T05:36:31;16.90;95.40
32217;DHT22;67098;51.140;4.088;2023-05-10T05:38:57;16.90;95.30
32217;DHT22;67098;51.140;4.088;2023-05-10T05:41:23;17.00;95.10
32217;DHT22;67098;51.140;4.088;2023-05-10T05:43:49;17.00;95.00
32217;DHT22;67098;51.140;4.088;2023-05-10T05:46:15;17.00;94.80
32217;DHT22;67098;51.140;4.088;2023-05-10T05:48:41;16.90;94.70
32217;DHT22;67098;51.140;4.088;2023-05-10T05:51:06;17.00;94.70
32217;DHT22;67098;51.140;4.088;2023-05-10T05:53:32;17.00;94.70
32217;DHT22;67098;51.140;4.088;2023-05-10T05:55:58;17.00;94.70
32217;DHT22;67098;51.140;4.088;2023-05-10T05:58:25;17.00;94.80
32217;DHT22;67098;51.140;4.088;2023-05-10T06:00:51;17.00;94.60
32217;DHT22;67098;51.140;4.088;2023-05-10T06:03:18;17.00;94.50
32217;DHT22;67098;51.140;4.088;2023-05-10T06:05:43;16.90;94.50
32217;DHT22;67098;51.140;4.088;2023-05-10T06:08:09;16.90;94.70
32217;DHT22;67098;51.140;4.088;2023-05-10T06:10:36;16.80;94.90
32217;DHT22;67098;51.140;4.088;2023-05-10T06:13:02;16.80;94.90
32217;DHT22;67098;51.140;4.088;2023-05-10T06:15:28;16.80;94.90
32217;DHT22;67098;51.140;4.088;2023-05-10T06:17:53;16.80;94.90
32217;DHT22;67098;51.140;4.088;2023-05-10T06:20:19;16.80;94.90
32217;DHT22;67098;51.140;4.088;2023-05-10T06:22:45;16.70;94.90
32217;DHT22;67098;51.140;4.088;2023-05-10T06:25:10;16.50;95.00
32217;DHT22;67098;51.140;4.088;2023-05-10T06:27:37;16.50;95.00
32217;DHT22;67098;51.140;4.088;2023-05-10T06:30:03;16.40;95.10
32217;DHT22;67098;51.140;4.088;2023-05-10T06:32:29;16.40;95.30
32217;DHT22;67098;51.140;4.088;2023-05-10T06:34:54;16.50;95.30
32217;DHT22;67098;51.140;4.088;2023-05-10T06:37:20;16.50;95.20
32217;DHT22;67098;51.140;4.088;2023-05-10T06:39:46;16.60;95.10
32217;DHT22;67098;51.140;4.088;2023-05-10T06:42:11;16.60;95.10
32217;DHT22;67098;51.140;4.088;2023-05-10T06:44:37;16.60;95.10
32217;DHT22;67098;51.140;4.088;2023-05-10T06:47:03;16.80;94.80
32217;DHT22;67098;51.140;4.088;2023-05-10T06:49:28;16.80;94.70
32217;DHT22;67098;51.140;4.088;2023-05-10T06:51:55;16.80;94.60
32217;DHT22;67098;51.140;4.088;2023-05-10T06:54:21;16.90;94.50
32217;DHT22;67098;51.140;4.088;2023-05-10T06:56:48;16.90;94.40
32217;DHT22;67098;51.140;4.088;2023-05-10T06:59:14;17.00;94.50
32217;DHT22;67098;51.140;4.088;2023-05-10T07:01:42;17.10;94.40
32217;DHT22;67098;51.140;4.088;2023-05-10T07:04:09;17.10;94.30
32217;DHT22;67098;51.140;4.088;2023-05-10T07:06:34;17.20;94.00
32217;DHT22;67098;51.140;4.088;2023-05-10T07:09:00;17.30;93.90
32217;DHT22;67098;51.140;4.088;2023-05-10T07:11:26;17.40;93.90
32217;DHT22;67098;51.140;4.088;2023-05-10T07:13:52;17.60;94.00
32217;DHT22;67098;51.140;4.088;2023-05-10T07:16:18;17.90;94.00
32217;DHT22;67098;51.140;4.088;2023-05-10T07:18:43;18.20;93.70
32217;DHT22;67098;51.140;4.088;2023-05-10T07:21:09;18.40;93.10
32217;DHT22;67098;51.140;4.088;2023-05-10T07:23:35;18.60;92.60
32217;DHT22;67098;51.140;4.088;2023-05-10T07:26:01;18.80;91.90
32217;DHT22;67098;51.140;4.088;2023-05-10T07:28:27;18.90;91.60
32217;DHT22;67098;51.140;4.088;2023-05-10T07:30:53;19.10;91.50
32217;DHT22;67098;51.140;4.088;2023-05-10T07:33:19;19.20;91.40
32217;DHT22;67098;51.140;4.088;2023-05-10T07:35:44;19.40;90.70
32217;DHT22;67098;51.140;4.088;2023-05-10T07:38:10;19.60;90.70
32217;DHT22;67098;51.140;4.088;2023-05-10T07:40:39;19.70;89.80
32217;DHT22;67098;51.140;4.088;2023-05-10T07:43:05;19.90;89.10
32217;DHT22;67098;51.140;4.088;2023-05-10T07:45:30;20.10;87.80
32217;DHT22;67098;51.140;4.088;2023-05-10T07:47:56;20.20;87.80
32217;DHT22;67098;51.140;4.088;2023-05-10T07:50:22;20.30;87.50
32217;DHT22;67098;51.140;4.088;2023-05-10T07:52:47;20.30;86.30
32217;DHT22;67098;51.140;4.088;2023-05-10T07:55:13;20.50;87.20
32217;DHT22;67098;51.140;4.088;2023-05-10T07:57:39;20.60;85.90
32217;DHT22;67098;51.140;4.088;2023-05-10T08:00:06;20.80;85.10
32217;DHT22;67098;51.140;4.088;2023-05-10T08:02:33;21.20;84.20
32217;DHT22;67098;51.140;4.088;2023-05-10T08:04:59;21.40;83.40
32217;DHT22;67098;51.140;4.088;2023-05-10T08:07:25;21.80;83.00
32217;DHT22;67098;51.140;4.088;2023-05-10T08:09:50;22.20;81.50
32217;DHT22;67098;51.140;4.088;2023-05-10T08:12:16;22.60;80.30
32217;DHT22;67098;51.140;4.088;2023-05-10T08:14:42;22.90;78.70
32217;DHT22;67098;51.140;4.088;2023-05-10T08:17:07;23.40;78.20
32217;DHT22;67098;51.140;4.088;2023-05-10T08:19:33;23.70;76.60
32217;DHT22;67098;51.140;4.088;2023-05-10T08:21:59;24.00;74.90
32217;DHT22;67098;51.140;4.088;2023-05-10T08:24:25;24.00;74.10
32217;DHT22;67098;51.140;4.088;2023-05-10T08:26:50;24.30;74.20
32217;DHT22;67098;51.140;4.088;2023-05-10T08:29:16;24.50;73.00
32217;DHT22;67098;51.140;4.088;2023-05-10T08:31:42;24.70;72.60
32217;DHT22;67098;51.140;4.088;2023-05-10T08:34:07;24.90;71.80
32217;DHT22;67098;51.140;4.088;2023-05-10T08:36:33;25.10;71.50
32217;DHT22;67098;51.140;4.088;2023-05-10T08:38:59;25.10;70.90
32217;DHT22;67098;51.140;4.088;2023-05-10T08:41:25;24.80;70.70
32217;DHT22;67098;51.140;4.088;2023-05-10T08:43:53;24.60;70.60
32217;DHT22;67098;51.140;4.088;2023-05-10T08:46:21;24.20;70.10
32217;DHT22;67098;51.140;4.088;2023-05-10T08:48:49;24.00;71.70
32217;DHT22;67098;51.140;4.088;2023-05-10T08:51:18;23.80;71.80
32217;DHT22;67098;51.140;4.088;2023-05-10T08:53:45;23.60;72.60
32217;DHT22;67098;51.140;4.088;2023-05-10T08:56:11;23.50;73.00
32217;DHT22;67098;51.140;4.088;2023-05-10T08:58:37;23.30;74.80
32217;DHT22;67098;51.140;4.088;2023-05-10T09:01:04;22.90;76.10
32217;DHT22;67098;51.140;4.088;2023-05-10T09:03:30;22.40;77.10
32217;DHT22;67098;51.140;4.088;2023-05-10T09:05:56;22.30;77.70
32217;DHT22;67098;51.140;4.088;2023-05-10T09:08:26;22.30;79.50
32217;DHT22;67098;51.140;4.088;2023-05-10T09:10:52;22.40;79.20
32217;DHT22;67098;51.140;4.088;2023-05-10T09:13:19;22.40;78.90
32217;DHT22;67098;51.140;4.088;2023-05-10T09:15:47;22.50;79.20
32217;DHT22;67098;51.140;4.088;2023-05-10T09:18:13;22.60;78.70
32217;DHT22;67098;51.140;4.088;2023-05-10T09:20:39;22.80;78.70
32217;DHT22;67098;51.140;4.088;2023-05-10T09:23:04;22.90;78.60
32217;DHT22;67098;51.140;4.088;2023-05-10T09:25:31;23.00;78.50
32217;DHT22;67098;51.140;4.088;2023-05-10T09:27:59;23.10;78.00
32217;DHT22;67098;51.140;4.088;2023-05-10T09:30:29;23.50;77.60
32217;DHT22;67098;51.140;4.088;2023-05-10T09:32:59;23.90;77.00
32217;DHT22;67098;51.140;4.088;2023-05-10T09:35:28;24.10;75.80
32217;DHT22;67098;51.140;4.088;2023-05-10T09:37:55;24.50;75.80
32217;DHT22;67098;51.140;4.088;2023-05-10T09:40:23;25.10;73.90
32217;DHT22;67098;51.140;4.088;2023-05-10T09:43:04;25.70;71.90
32217;DHT22;67098;51.140;4.088;2023-05-10T09:45:35;26.50;68.80
32217;DHT22;67098;51.140;4.088;2023-05-10T09:48:02;26.90;68.40
32217;DHT22;67098;51.140;4.088;2023-05-10T09:50:28;26.90;67.00
32217;DHT22;67098;51.140;4.088;2023-05-10T09:52:55;26.50;67.50
32217;DHT22;67098;51.140;4.088;2023-05-10T09:55:25;26.70;68.10
32217;DHT22;67098;51.140;4.088;2023-05-10T09:58:01;26.70;67.00
32217;DHT22;67098;51.140;4.088;2023-05-10T10:00:35;26.60;66.90
32217;DHT22;67098;51.140;4.088;2023-05-10T10:03:01;26.10;66.90
32217;DHT22;67098;51.140;4.088;2023-05-10T10:05:35;26.00;67.80
32217;DHT22;67098;51.140;4.088;2023-05-10T10:08:04;26.00;67.60
32217;DHT22;67098;51.140;4.088;2023-05-10T10:10:31;25.70;67.70
32217;DHT22;67098;51.140;4.088;2023-05-10T10:12:58;25.90;68.20
32217;DHT22;67098;51.140;4.088;2023-05-10T10:15:24;26.10;68.10
32217;DHT22;67098;51.140;4.088;2023-05-10T10:17:51;26.20;67.00
32217;DHT22;67098;51.140;4.088;2023-05-10T10:20:19;26.00;67.00
32217;DHT22;67098;51.140;4.088;2023-05-10T10:22:45;25.90;67.40
32217;DHT22;67098;51.140;4.088;2023-05-10T10:25:12;26.20;67.00
32217;DHT22;67098;51.140;4.088;2023-05-10T10:35:24;28.50;62.50
32217;DHT22;67098;51.140;4.088;2023-05-10T10:37:50;28.80;63.00
32217;DHT22;67098;51.140;4.088;2023-05-10T10:40:30;29.00;61.50
32217;DHT22;67098;51.140;4.088;2023-05-10T10:42:57;28.90;60.50
32217;DHT22;67098;51.140;4.088;2023-05-10T10:45:24;28.40;60.10
32217;DHT22;67098;51.140;4.088;2023-05-10T10:48:22;28.00;61.00
32217;DHT22;67098;51.140;4.088;2023-05-10T10:50:56;27.60;61.90
32217;DHT22;67098;51.140;4.088;2023-05-10T10:53:26;27.30;63.00
32217;DHT22;67098;51.140;4.088;2023-05-10T10:56:04;26.90;63.00
32217;DHT22;67098;51.140;4.088;2023-05-10T10:58:33;27.20;62.70
32217;DHT22;67098;51.140;4.088;2023-05-10T11:01:14;26.90;62.90
32217;DHT22;67098;51.140;4.088;2023-05-10T11:03:41;26.60;63.70
32217;DHT22;67098;51.140;4.088;2023-05-10T11:06:32;26.40;64.70
32217;DHT22;67098;51.140;4.088;2023-05-10T11:08:59;26.30;64.80
32217;DHT22;67098;51.140;4.088;2023-05-10T11:11:30;26.20;64.90
32217;DHT22;67098;51.140;4.088;2023-05-10T11:14:03;26.00;64.20
32217;DHT22;67098;51.140;4.088;2023-05-10T11:16:43;25.90;65.20
32217;DHT22;67098;51.140;4.088;2023-05-10T11:19:11;25.70;64.80
32217;DHT22;67098;51.140;4.088;2023-05-10T11:21:50;25.70;65.80
32217;DHT22;67098;51.140;4.088;2023-05-10T11:24:22;26.10;65.10
32217;DHT22;67098;51.140;4.088;2023-05-10T11:26:50;26.90;64.50
32217;DHT22;67098;51.140;4.088;2023-05-10T11:29:17;27.60;63.40
32217;DHT22;67098;51.140;4.088;2023-05-10T11:31:46;28.20;62.10
32217;DHT22;67098;51.140;4.088;2023-05-10T11:34:23;28.20;60.60
32217;DHT22;67098;51.140;4.088;2023-05-10T11:36:55;28.00;60.40
32217;DHT22;67098;51.140;4.088;2023-05-10T11:39:29;27.70;61.80
32217;DHT22;67098;51.140;4.088;2023-05-10T11:41:56;27.20;61.60
32217;DHT22;67098;51.140;4.088;2023-05-10T11:44:22;26.80;62.20
32217;DHT22;67098;51.140;4.088;2023-05-10T11:46:48;26.50;63.20
32217;DHT22;67098;51.140;4.088;2023-05-10T11:49:14;25.90;63.80
32217;DHT22;67098;51.140;4.088;2023-05-10T11:51:40;25.30;64.30
32217;DHT22;67098;51.140;4.088;2023-05-10T11:54:09;25.20;65.20
32217;DHT22;67098;51.140;4.088;2023-05-10T11:56:36;24.90;65.20
32217;DHT22;67098;51.140;4.088;2023-05-10T11:59:02;24.50;66.00
32217;DHT22;67098;51.140;4.088;2023-05-10T12:01:29;24.40;66.70
32217;DHT22;67098;51.140;4.088;2023-05-10T12:03:56;24.10;67.00
32217;DHT22;67098;51.140;4.088;2023-05-10T12:06:32;24.00;67.80
32217;DHT22;67098;51.140;4.088;2023-05-10T12:09:06;23.90;68.00
32217;DHT22;67098;51.140;4.088;2023-05-10T12:11:37;24.00;69.10
32217;DHT22;67098;51.140;4.088;2023-05-10T12:14:04;24.20;68.30
32217;DHT22;67098;51.140;4.088;2023-05-10T12:16:30;24.30;68.10
32217;DHT22;67098;51.140;4.088;2023-05-10T12:18:58;24.40;67.40
32217;DHT22;67098;51.140;4.088;2023-05-10T12:21:24;24.20;68.20
32217;DHT22;67098;51.140;4.088;2023-05-10T12:23:52;24.30;68.40
32217;DHT22;67098;51.140;4.088;2023-05-10T12:26:18;24.30;68.00
32217;DHT22;67098;51.140;4.088;2023-05-10T12:28:46;24.30;68.10
32217;DHT22;67098;51.140;4.088;2023-05-10T12:31:12;24.30;67.90
32217;DHT22;67098;51.140;4.088;2023-05-10T12:33:39;23.60;68.70
32217;DHT22;67098;51.140;4.088;2023-05-10T12:36:07;22.80;69.90
32217;DHT22;67098;51.140;4.088;2023-05-10T12:41:07;22.00;72.70
32217;DHT22;67098;51.140;4.088;2023-05-10T12:43:34;21.80;74.70
32217;DHT22;67098;51.140;4.088;2023-05-10T12:46:11;21.70;75.40
32217;DHT22;67098;51.140;4.088;2023-05-10T12:48:38;21.10;77.20
32217;DHT22;67098;51.140;4.088;2023-05-10T12:51:04;21.00;79.60
32217;DHT22;67098;51.140;4.088;2023-05-10T12:53:31;21.10;80.00
32217;DHT22;67098;51.140;4.088;2023-05-10T12:55:57;21.30;79.30
32217;DHT22;67098;51.140;4.088;2023-05-10T12:58:22;21.40;79.30
32217;DHT22;67098;51.140;4.088;2023-05-10T13:00:48;21.50;79.20
32217;DHT22;67098;51.140;4.088;2023-05-10T13:03:14;21.50;79.20
32217;DHT22;67098;51.140;4.088;2023-05-10T13:05:41;21.50;79.60
32217;DHT22;67098;51.140;4.088;2023-05-10T13:08:06;21.50;79.60
32217;DHT22;67098;51.140;4.088;2023-05-10T13:10:32;21.70;79.60
32217;DHT22;67098;51.140;4.088;2023-05-10T13:12:58;21.80;79.50
32217;DHT22;67098;51.140;4.088;2023-05-10T13:15:25;21.80;79.10
32217;DHT22;67098;51.140;4.088;2023-05-10T13:17:51;21.80;78.70
32217;DHT22;67098;51.140;4.088;2023-05-10T13:20:16;21.90;78.40
32217;DHT22;67098;51.140;4.088;2023-05-10T13:22:45;21.90;78.30
32217;DHT22;67098;51.140;4.088;2023-05-10T13:25:11;21.90;78.70
32217;DHT22;67098;51.140;4.088;2023-05-10T13:27:40;21.90;78.70
32217;DHT22;67098;51.140;4.088;2023-05-10T13:30:07;22.00;78.70
32217;DHT22;67098;51.140;4.088;2023-05-10T13:32:33;22.20;79.10
32217;DHT22;67098;51.140;4.088;2023-05-10T13:34:59;22.30;78.70
32217;DHT22;67098;51.140;4.088;2023-05-10T13:37:24;22.40;79.10
32217;DHT22;67098;51.140;4.088;2023-05-10T13:39:50;22.50;78.30
32217;DHT22;67098;51.140;4.088;2023-05-10T13:42:16;22.60;78.30
32217;DHT22;67098;51.140;4.088;2023-05-10T13:44:42;22.60;78.20
32217;DHT22;67098;51.140;4.088;2023-05-10T13:47:08;22.60;78.30
32217;DHT22;67098;51.140;4.088;2023-05-10T13:49:33;22.70;78.50
32217;DHT22;67098;51.140;4.088;2023-05-10T13:52:00;22.70;78.10
32217;DHT22;67098;51.140;4.088;2023-05-10T13:54:35;22.60;77.80
32217;DHT22;67098;51.140;4.088;2023-05-10T13:57:02;22.30;76.80
32217;DHT22;67098;51.140;4.088;2023-05-10T13:59:28;21.80;77.20
32217;DHT22;67098;51.140;4.088;2023-05-10T14:01:54;21.40;77.50
32217;DHT22;67098;51.140;4.088;2023-05-10T14:04:20;20.90;79.50
32217;DHT22;67098;51.140;4.088;2023-05-10T14:06:46;20.60;80.40
32217;DHT22;67098;51.140;4.088;2023-05-10T14:09:11;20.20;81.90
32217;DHT22;67098;51.140;4.088;2023-05-10T14:11:38;20.00;82.70
32217;DHT22;67098;51.140;4.088;2023-05-10T14:14:07;19.90;83.50
32217;DHT22;67098;51.140;4.088;2023-05-10T14:16:33;19.80;84.40
32217;DHT22;67098;51.140;4.088;2023-05-10T14:18:59;19.70;84.60
32217;DHT22;67098;51.140;4.088;2023-05-10T14:21:25;19.60;85.50
32217;DHT22;67098;51.140;4.088;2023-05-10T14:23:50;19.50;85.70
32217;DHT22;67098;51.140;4.088;2023-05-10T14:26:16;19.40;86.50
32217;DHT22;67098;51.140;4.088;2023-05-10T14:28:42;19.20;87.70
32217;DHT22;67098;51.140;4.088;2023-05-10T14:31:07;19.20;87.90
32217;DHT22;67098;51.140;4.088;2023-05-10T14:33:33;19.20;87.80
32217;DHT22;67098;51.140;4.088;2023-05-10T14:35:59;19.20;87.60
32217;DHT22;67098;51.140;4.088;2023-05-10T14:38:25;19.40;87.30
32217;DHT22;67098;51.140;4.088;2023-05-10T14:40:51;19.50;87.10
32217;DHT22;67098;51.140;4.088;2023-05-10T14:43:17;19.60;87.20
32217;DHT22;67098;51.140;4.088;2023-05-10T14:45:43;19.60;87.50
32217;DHT22;67098;51.140;4.088;2023-05-10T14:48:10;19.70;87.50
32217;DHT22;67098;51.140;4.088;2023-05-10T14:50:40;19.70;87.40
32217;DHT22;67098;51.140;4.088;2023-05-10T14:53:06;19.60;87.60
32217;DHT22;67098;51.140;4.088;2023-05-10T14:55:32;19.60;87.80
32217;DHT22;67098;51.140;4.088;2023-05-10T14:57:58;19.50;88.00
32217;DHT22;67098;51.140;4.088;2023-05-10T15:00:23;19.50;88.20
32217;DHT22;67098;51.140;4.088;2023-05-10T15:02:49;19.40;88.70
32217;DHT22;67098;51.140;4.088;2023-05-10T15:05:15;19.30;88.60
32217;DHT22;67098;51.140;4.088;2023-05-10T15:07:41;19.30;88.60
32217;DHT22;67098;51.140;4.088;2023-05-10T15:10:09;19.20;87.80
32217;DHT22;67098;51.140;4.088;2023-05-10T15:12:35;19.10;87.50
32217;DHT22;67098;51.140;4.088;2023-05-10T15:15:01;19.00;87.50
32217;DHT22;67098;51.140;4.088;2023-05-10T15:17:27;19.10;86.80
32217;DHT22;67098;51.140;4.088;2023-05-10T15:19:53;18.90;86.70
32217;DHT22;67098;51.140;4.088;2023-05-10T15:22:18;18.90;86.80
32217;DHT22;67098;51.140;4.088;2023-05-10T15:24:44;18.90;87.10
32217;DHT22;67098;51.140;4.088;2023-05-10T15:27:10;18.90;87.40
32217;DHT22;67098;51.140;4.088;2023-05-10T15:29:35;18.90;87.60
32217;DHT22;67098;51.140;4.088;2023-05-10T15:32:02;18.90;87.90
32217;DHT22;67098;51.140;4.088;2023-05-10T15:34:28;18.90;88.00
32217;DHT22;67098;51.140;4.088;2023-05-10T15:36:54;18.90;88.40
32217;DHT22;67098;51.140;4.088;2023-05-10T15:39:19;18.90;88.60
32217;DHT22;67098;51.140;4.088;2023-05-10T15:41:45;18.80;89.10
32217;DHT22;67098;51.140;4.088;2023-05-10T15:44:11;18.80;89.30
32217;DHT22;67098;51.140;4.088;2023-05-10T15:46:36;18.80;89.80
32217;DHT22;67098;51.140;4.088;2023-05-10T15:49:03;18.80;90.10
32217;DHT22;67098;51.140;4.088;2023-05-10T15:51:29;18.90;90.20
32217;DHT22;67098;51.140;4.088;2023-05-10T15:53:54;18.90;90.00